Time;durP1;ratioP1;P1;durP2;ratioP2;P2;SDS_P1;SDS_P2;PMS_P1;PMS_P2;Temp;Humidity;BMP_temperature;BMP_pressure;BME280_temperature;BME280_humidity;BME280_pressure;Samples;Min_cycle;Max_cycle;Signal;HPM_P1;HPM_P2
2022/12/14 00:00:56;;;;;;;47.37;19.77;;;;;;;-9.76;76.02;98592.71;2172587;81;20996;-78
2022/12/14 00:03:57;;;;;;;39.47;17.73;;;;;;;-9.67;76.12;98587.18;2172559;81;20984;-78
2022/12/14 00:06:57;;;;;;;43.07;18.33;;;;;;;-9.57;76.29;98588.84;2172718;81;20921;-77
2022/12/14 00:09:58;;;;;;;53.37;23.70;;;;;;;-9.44;76.42;98596.73;2172479;81;21356;-77
2022/12/14 00:12:58;;;;;;;61.83;23.33;;;;;;;-9.33;76.69;98587.16;2172444;81;20915;-77
2022/12/14 00:15:58;;;;;;;64.63;26.40;;;;;;;-9.16;77.57;98579.71;2172324;81;20988;-78
2022/12/14 00:18:59;;;;;;;76.93;30.57;;;;;;;-9.04;77.46;98584.52;2172709;82;20902;-77
2022/12/14 00:21:59;;;;;;;65.40;26.60;;;;;;;-8.93;77.65;98576.93;2172528;81;21368;-77
2022/12/14 00:25:01;;;;;;;57.60;25.83;;;;;;;-8.87;77.23;98578.70;2172589;82;20929;-77
2022/12/14 00:28:00;;;;;;;64.47;25.17;;;;;;;-8.87;77.09;98576.17;2172797;81;20886;-77
2022/12/14 00:31:00;;;;;;;56.60;22.43;;;;;;;-8.83;76.50;98577.81;2172514;81;21380;-77
2022/12/14 00:34:01;;;;;;;58.07;23.97;;;;;;;-8.88;76.24;98570.23;2188558;81;20992;-77
2022/12/14 00:37:01;;;;;;;56.47;21.50;;;;;;;-8.90;76.46;98574.27;2188289;81;20956;-77
2022/12/14 00:40:02;;;;;;;49.53;21.13;;;;;;;-8.91;76.33;98570.36;2188516;81;20969;-77
2022/12/14 00:43:02;;;;;;;62.37;24.60;;;;;;;-8.91;76.52;98567.82;2187948;81;21367;-77
2022/12/14 00:46:03;;;;;;;82.37;30.63;;;;;;;-8.91;76.61;98568.71;2187441;81;20996;-77
2022/12/14 00:49:03;;;;;;;78.30;29.97;;;;;;;-8.88;76.73;98564.28;2187646;81;20996;-77
2022/12/14 00:52:04;;;;;;;54.60;23.77;;;;;;;-8.89;76.18;98567.56;2187266;81;21011;-77
2022/12/14 00:55:04;;;;;;;52.40;22.73;;;;;;;-8.92;75.96;98568.20;2187582;81;20948;-77
2022/12/14 00:58:04;;;;;;;66.70;25.63;;;;;;;-8.93;76.26;98563.02;2188599;81;20937;-77
2022/12/14 01:01:05;;;;;;;69.17;28.60;;;;;;;-8.92;76.11;98567.31;2189518;81;20977;-77
2022/12/14 01:04:18;;;;;;;84.87;28.73;;;;;;;-8.92;76.01;98554.67;2189388;81;21356;-77
2022/12/14 01:07:18;;;;;;;64.43;25.33;;;;;;;-8.89;75.98;98563.39;2189348;81;20913;-78
2022/12/14 01:10:18;;;;;;;54.40;22.17;;;;;;;-8.90;75.26;98555.69;2189371;81;20913;-78
2022/12/14 01:13:18;;;;;;;54.07;23.13;;;;;;;-8.88;75.29;98555.43;2189532;81;21046;-78
2022/12/14 01:16:19;;;;;;;55.67;24.17;;;;;;;-8.89;74.76;98550.75;2189485;81;21418;-78
2022/12/14 01:19:19;;;;;;;53.23;22.67;;;;;;;-8.98;74.57;98552.91;2189381;81;20996;-79
2022/12/14 01:22:19;;;;;;;51.60;23.00;;;;;;;-9.05;74.68;98550.25;2189483;81;21047;-78
2022/12/14 01:25:20;;;;;;;62.37;24.50;;;;;;;-9.12;74.71;98541.28;2189534;81;21339;-78
2022/12/14 01:28:20;;;;;;;66.53;24.40;;;;;;;-9.19;74.58;98548.23;2189531;81;21257;-79
2022/12/14 01:31:21;;;;;;;66.70;24.97;;;;;;;-9.29;74.63;98544.06;2189447;80;21020;-78
2022/12/14 01:34:21;;;;;;;58.97;23.27;;;;;;;-9.39;74.58;98544.94;2172925;81;21021;-79
2022/12/14 01:37:21;;;;;;;64.67;26.20;;;;;;;-9.45;74.34;98552.39;2172818;81;20956;-79
2022/12/14 01:40:29;;;;;;;63.17;25.77;;;;;;;-9.55;74.04;98548.55;2173003;81;20944;-79
2022/12/14 01:43:26;;;;;;;64.15;27.65;;;;;;;-9.66;73.84;98544.73;2138866;82;21036;-78
2022/12/14 01:46:26;;;;;;;56.80;24.97;;;;;;;-9.78;74.08;98548.75;2172895;81;21004;-79
2022/12/14 01:49:30;;;;;;;68.30;26.77;;;;;;;-9.85;74.29;98543.94;2173115;82;20953;-79
2022/12/14 01:52:30;;;;;;;61.60;26.80;;;;;;;-9.93;73.86;98542.40;2173029;81;20953;-79
2022/12/14 01:55:30;;;;;;;57.00;25.43;;;;;;;-10.05;73.92;98548.55;2172446;81;20945;-79
2022/12/14 01:58:32;;;;;;;62.93;26.97;;;;;;;-10.09;74.21;98554.09;2172814;81;20922;-79
2022/12/14 02:01:31;;;;;;;62.47;23.10;;;;;;;-10.14;73.94;98549.40;2173059;81;20965;-78
2022/12/14 02:04:32;;;;;;;66.87;27.13;;;;;;;-10.22;73.65;98550.41;2173027;81;20952;-78
2022/12/14 02:07:32;;;;;;;70.57;29.17;;;;;;;-10.36;73.37;98547.58;2172813;81;20921;-79
2022/12/14 02:10:33;;;;;;;65.20;27.63;;;;;;;-10.35;73.93;98540.89;2173001;81;20909;-79
2022/12/14 02:13:33;;;;;;;66.13;27.73;;;;;;;-10.34;73.60;98541.40;2172827;81;20960;-78
2022/12/14 02:16:33;;;;;;;66.80;26.97;;;;;;;-10.38;73.35;98544.03;2172883;81;20996;-80
2022/12/14 02:19:34;;;;;;;68.90;27.80;;;;;;;-10.48;73.22;98543.95;2172614;81;20977;-78
2022/12/14 02:22:34;;;;;;;63.93;28.53;;;;;;;-10.60;73.55;98542.88;2172674;81;21403;-78
2022/12/14 02:25:35;;;;;;;65.93;26.13;;;;;;;-10.63;73.65;98540.97;2172863;81;20918;-78
2022/12/14 02:28:35;;;;;;;64.13;27.47;;;;;;;-10.66;73.98;98548.64;2172701;81;20901;-79
2022/12/14 02:31:35;;;;;;;67.13;26.60;;;;;;;-10.69;74.10;98550.89;2173149;81;20929;-78
2022/12/14 02:34:36;;;;;;;68.13;27.37;;;;;;;-10.73;74.05;98547.59;2189406;81;20973;-79
2022/12/14 02:37:36;;;;;;;67.73;28.00;;;;;;;-10.78;73.63;98551.34;2189328;81;20941;-79
2022/12/14 02:40:37;;;;;;;79.87;33.97;;;;;;;-10.77;74.46;98540.13;2189579;81;21020;-79
2022/12/14 02:43:37;;;;;;;75.83;32.90;;;;;;;-10.74;74.84;98539.14;2189447;81;21371;-79
2022/12/14 02:46:37;;;;;;;79.77;31.37;;;;;;;-10.70;75.08;98531.47;2189268;81;20948;-78
2022/12/14 02:49:38;;;;;;;80.03;32.00;;;;;;;-10.67;75.10;98525.44;2189462;81;20960;-79
2022/12/14 02:52:38;;;;;;;82.43;30.77;;;;;;;-10.62;75.63;98526.34;2189356;81;21044;-79
2022/12/14 02:55:39;;;;;;;77.30;30.80;;;;;;;-10.60;75.66;98535.31;2189372;81;20893;-79
2022/12/14 02:58:39;;;;;;;78.53;30.47;;;;;;;-10.53;75.75;98534.20;2189398;81;20948;-79
2022/12/14 03:01:39;;;;;;;89.60;32.47;;;;;;;-10.49;75.82;98542.17;2189458;81;21007;-78
2022/12/14 03:04:46;;;;;;;84.33;32.50;;;;;;;-10.50;75.25;98542.93;2189231;81;20916;-78
2022/12/14 03:07:40;;;;;;;74.07;29.03;;;;;;;-10.49;75.95;98540.91;2189435;81;20925;-78
2022/12/14 03:10:41;;;;;;;81.03;33.83;;;;;;;-10.46;76.16;98534.88;2188932;81;21019;-78
2022/12/14 03:13:42;;;;;;;86.10;34.23;;;;;;;-10.44;75.98;98531.23;2189690;81;21380;-78
2022/12/14 03:16:42;;;;;;;82.90;35.43;;;;;;;-10.46;76.01;98536.14;2189484;81;20969;-78
2022/12/14 03:19:43;;;;;;;80.57;35.17;;;;;;;-10.49;76.31;98531.20;2189350;81;21336;-79
2022/12/14 03:22:43;;;;;;;86.40;35.83;;;;;;;-10.49;76.57;98534.98;2188906;81;20976;-79
2022/12/14 03:25:43;;;;;;;86.57;36.93;;;;;;;-10.47;76.73;98525.53;2189502;81;21012;-79
2022/12/14 03:28:44;;;;;;;89.87;37.90;;;;;;;-10.48;76.71;98530.08;2189370;81;21288;-79
2022/12/14 03:31:44;;;;;;;94.00;38.67;;;;;;;-10.46;77.04;98527.69;2189209;81;20904;-78
2022/12/14 03:34:45;;;;;;;97.73;39.00;;;;;;;-10.43;77.21;98528.84;2189494;81;21014;-78
2022/12/14 03:37:45;;;;;;;75.47;34.80;;;;;;;-10.40;76.72;98525.73;2189331;81;21324;-79
2022/12/14 03:40:45;;;;;;;79.13;33.33;;;;;;;-10.40;76.36;98524.09;2189165;81;20912;-78
2022/12/14 03:43:46;;;;;;;89.17;34.47;;;;;;;-10.41;76.23;98521.02;2189434;81;21021;-78
2022/12/14 03:46:46;;;;;;;83.20;34.23;;;;;;;-10.47;75.82;98521.75;2189245;81;21344;-78
2022/12/14 03:49:47;;;;;;;84.83;34.53;;;;;;;-10.50;75.60;98526.91;2189312;81;21019;-79
2022/12/14 03:52:47;;;;;;;76.37;34.07;;;;;;;-10.59;75.71;98520.69;2189040;81;20995;-78
2022/12/14 03:55:47;;;;;;;87.33;33.90;;;;;;;-10.60;76.30;98527.73;2189301;81;21391;-78
2022/12/14 03:58:48;;;;;;;82.63;37.50;;;;;;;-10.62;76.61;98532.66;2189203;81;20960;-78
2022/12/14 04:01:48;;;;;;;77.13;34.23;;;;;;;-10.57;76.89;98520.44;2189419;81;21023;-78
2022/12/14 04:04:49;;;;;;;79.43;34.67;;;;;;;-10.55;76.49;98523.98;2189224;81;21297;-78
2022/12/14 04:07:49;;;;;;;88.83;34.10;;;;;;;-10.62;76.13;98522.94;2189377;81;20965;-78
2022/12/14 04:20:46;;;;;;;75.87;31.73;;;;;;;-10.91;76.47;98511.55;2189191;81;21000;-78
2022/12/14 04:27:05;;;;;;;90.07;37.20;;;;;;;-10.94;76.80;98519.73;2189182;81;20980;-78
2022/12/14 04:30:06;;;;;;;81.63;34.07;;;;;;;-10.91;76.56;98519.12;2189311;81;21339;-77
2022/12/14 04:36:25;;;;;;;86.60;34.87;;;;;;;-10.91;76.55;98524.16;2189164;81;21011;-78
2022/12/14 04:39:26;;;;;;;79.73;32.30;;;;;;;-10.94;76.66;98521.36;2189109;81;20959;-78
2022/12/14 04:42:26;;;;;;;73.33;31.23;;;;;;;-10.99;76.35;98517.17;2188248;81;20956;-77
2022/12/14 04:45:27;;;;;;;70.50;29.70;;;;;;;-11.01;76.64;98519.05;2187141;81;21645;-78
2022/12/14 04:48:27;;;;;;;78.87;32.67;;;;;;;-11.05;76.47;98511.97;2187455;81;20988;-78
2022/12/14 04:51:30;;;;;;;81.23;33.03;;;;;;;-11.08;76.75;98511.31;2187728;81;21019;-78
2022/12/14 04:54:28;;;;;;;90.13;35.70;;;;;;;-11.06;76.66;98510.20;2187309;81;20956;-78
2022/12/14 04:57:28;;;;;;;70.00;32.20;;;;;;;-11.07;76.88;98513.09;2186653;81;21911;-79
2022/12/14 05:00:29;;;;;;;73.30;28.60;;;;;;;-11.08;76.58;98515.09;2185736;81;21000;-78
2022/12/14 05:03:29;;;;;;;77.93;30.60;;;;;;;-11.13;76.68;98507.87;2185634;81;21023;-78
2022/12/14 05:06:29;;;;;;;73.37;31.47;;;;;;;-11.16;76.66;98501.30;2185282;81;21382;-79
2022/12/14 05:09:30;;;;;;;71.37;29.97;;;;;;;-11.17;76.70;98501.67;2184707;81;21220;-78
2022/12/14 05:12:30;;;;;;;70.33;30.40;;;;;;;-11.24;76.35;98493.44;2185965;81;20987;-79
2022/12/14 05:15:31;;;;;;;74.30;30.60;;;;;;;-11.28;76.51;98498.16;2186019;81;21449;-78
2022/12/14 05:18:31;;;;;;;72.50;29.13;;;;;;;-11.29;76.22;98492.98;2185664;81;21023;-79
2022/12/14 05:21:47;;;;;;;71.03;31.17;;;;;;;-11.34;76.29;98487.91;2186381;81;21023;-78
2022/12/14 05:24:47;;;;;;;76.40;30.80;;;;;;;-11.37;76.25;98482.22;2186081;81;20964;-78
2022/12/14 05:27:48;;;;;;;71.80;28.80;;;;;;;-11.36;76.16;98471.77;2185789;81;21438;-78
2022/12/14 05:30:48;;;;;;;66.67;29.57;;;;;;;-11.43;75.93;98471.98;2186502;81;21008;-78
2022/12/14 05:33:48;;;;;;;58.67;26.13;;;;;;;-11.50;75.93;98475.95;2179712;81;20989;-78
2022/12/14 05:36:51;;;;;;;70.37;28.80;;;;;;;-11.30;78.81;98471.06;2171502;81;21364;-78
2022/12/14 05:39:51;;;;;;;67.17;30.03;;;;;;;-11.29;76.84;98469.05;2160235;82;20948;-79
2022/12/14 05:42:53;;;;;;;69.17;29.40;;;;;;;-11.31;76.41;98467.66;2159424;82;21035;-78
2022/12/14 05:45:54;;;;;;;59.37;25.97;;;;;;;-11.35;76.17;98462.20;2171466;81;21388;-78
2022/12/14 05:48:54;;;;;;;64.63;27.03;;;;;;;-11.34;75.85;98459.83;2169718;81;21004;-79
2022/12/14 05:51:55;;;;;;;70.93;30.90;;;;;;;-11.37;75.52;98454.52;2170238;81;21051;-78
2022/12/14 05:54:55;;;;;;;76.97;32.83;;;;;;;-11.25;77.50;98456.02;2169402;81;21000;-78
2022/12/14 05:57:55;;;;;;;63.63;26.57;;;;;;;-11.23;76.14;98452.00;2166821;81;20968;-79
2022/12/14 06:00:56;;;;;;;65.37;29.20;;;;;;;-11.29;75.29;98452.67;2167520;81;20956;-79
2022/12/14 06:03:56;;;;;;;66.33;29.37;;;;;;;-11.37;75.15;98446.07;2168343;82;21047;-78
2022/12/14 06:06:57;;;;;;;66.87;28.83;;;;;;;-11.47;74.75;98446.89;2168258;82;20985;-78
2022/12/14 06:09:57;;;;;;;66.53;29.27;;;;;;;-11.53;75.10;98453.01;2168928;81;21862;-78
2022/12/14 06:12:57;;;;;;;64.10;25.60;;;;;;;-11.57;75.33;98451.84;2168422;82;21248;-79
2022/12/14 06:15:58;;;;;;;65.30;27.00;;;;;;;-11.62;75.50;98445.52;2167699;81;21063;-79
2022/12/14 06:18:58;;;;;;;58.50;25.83;;;;;;;-11.65;76.33;98442.34;2168615;82;20992;-79
2022/12/14 06:22:00;;;;;;;67.87;27.40;;;;;;;-11.63;76.66;98448.78;2168638;81;21004;-79
2022/12/14 06:24:59;;;;;;;77.87;31.53;;;;;;;-11.59;76.71;98445.41;2169597;81;21024;-78
2022/12/14 06:27:59;;;;;;;70.73;30.07;;;;;;;-11.53;77.27;98438.78;2167696;81;21938;-79
2022/12/14 06:31:03;;;;;;;65.67;28.53;;;;;;;-11.48;77.17;98444.23;2165629;81;21044;-78
2022/12/14 06:34:03;;;;;;;61.73;26.63;;;;;;;-11.48;77.33;98442.59;2175173;81;21034;-79
2022/12/14 06:37:05;;;;;;;74.53;30.87;;;;;;;-11.46;77.79;98447.77;2184199;81;21038;-79
2022/12/14 06:40:04;;;;;;;80.43;31.43;;;;;;;-11.39;78.17;98443.41;2183404;81;20979;-78
2022/12/14 06:43:04;;;;;;;67.00;26.97;;;;;;;-11.32;77.96;98446.11;2184591;81;21431;-79
2022/12/14 06:46:05;;;;;;;72.80;31.37;;;;;;;-11.28;78.09;98442.73;2185800;81;20971;-78
2022/12/14 06:49:05;;;;;;;76.37;30.50;;;;;;;-11.24;78.11;98439.27;2186236;81;20973;-79
2022/12/14 06:52:06;;;;;;;64.67;29.50;;;;;;;-11.18;78.31;98443.20;2185601;81;21534;-79
2022/12/14 06:55:06;;;;;;;81.97;32.30;;;;;;;-11.11;78.08;98444.26;2186005;81;20956;-78
2022/12/14 06:58:07;;;;;;;77.30;30.77;;;;;;;-11.04;78.17;98440.27;2185170;81;20936;-79
2022/12/14 07:01:07;;;;;;;72.37;30.23;;;;;;;-10.97;78.08;98439.16;2184988;81;21053;-79
2022/12/14 07:04:07;;;;;;;68.40;31.73;;;;;;;-10.88;78.21;98442.87;2184910;81;20956;-79
2022/12/14 07:07:08;;;;;;;74.17;32.17;;;;;;;-10.81;78.18;98446.43;2186148;81;20936;-79
2022/12/14 07:10:08;;;;;;;74.67;33.43;;;;;;;-10.69;78.16;98440.81;2185355;81;21035;-79
2022/12/14 07:13:08;;;;;;;79.83;34.17;;;;;;;-10.58;78.27;98448.05;2184905;81;20992;-80
2022/12/14 07:16:09;;;;;;;78.80;31.93;;;;;;;-10.50;77.86;98443.28;2183750;81;20984;-78
2022/12/14 07:19:09;;;;;;;75.33;33.33;;;;;;;-10.42;77.76;98451.13;2184635;81;20955;-79
2022/12/14 07:22:10;;;;;;;69.90;29.77;;;;;;;-10.33;77.64;98449.42;2185614;81;21019;-79
2022/12/14 07:25:10;;;;;;;69.43;29.80;;;;;;;-10.25;77.55;98434.94;2185333;81;21011;-80
2022/12/14 07:28:10;;;;;;;81.17;34.30;;;;;;;-10.21;77.14;98431.03;2185005;81;21027;-78
2022/12/14 07:31:11;;;;;;;78.90;31.93;;;;;;;-10.12;77.28;98433.03;2186745;81;21027;-78
2022/12/14 07:34:11;;;;;;;81.23;33.40;;;;;;;-10.02;77.11;98428.00;2178170;81;22009;-79
2022/12/14 07:37:12;;;;;;;84.47;37.63;;;;;;;-9.99;77.15;98430.41;2168599;81;20953;-79
2022/12/14 07:40:12;;;;;;;87.50;37.50;;;;;;;-9.91;77.16;98434.84;2169168;81;21008;-80
2022/12/14 07:43:12;;;;;;;81.40;35.23;;;;;;;-9.88;77.05;98424.99;2167842;81;21423;-79
2022/12/14 07:46:13;;;;;;;78.73;34.77;;;;;;;-9.81;76.95;98425.13;2165720;81;21293;-78
2022/12/14 07:49:13;;;;;;;75.87;34.53;;;;;;;-9.80;76.76;98421.45;2168636;81;20955;-78
2022/12/14 07:52:14;;;;;;;98.67;41.37;;;;;;;-9.77;76.99;98411.61;2166294;81;21498;-79
2022/12/14 07:55:14;;;;;;;76.60;32.47;;;;;;;-9.65;77.23;98414.27;2166496;81;21270;-78
2022/12/14 07:58:14;;;;;;;83.43;36.23;;;;;;;-9.53;77.27;98415.68;2167148;81;20976;-78
2022/12/14 08:01:15;;;;;;;103.77;44.00;;;;;;;-9.46;77.45;98407.84;2166265;81;21418;-79
2022/12/14 08:04:15;;;;;;;103.60;45.23;;;;;;;-9.46;77.12;98405.31;2167005;81;21003;-77
2022/12/14 08:07:16;;;;;;;94.20;39.20;;;;;;;-9.39;77.03;98407.58;2167474;81;21016;-80
2022/12/14 08:10:16;;;;;;;100.77;41.50;;;;;;;-9.33;77.11;98400.49;2167040;81;21514;-78
2022/12/14 08:13:18;;;;;;;99.47;40.60;;;;;;;-9.26;77.33;98398.96;2166959;81;20984;-78
2022/12/14 08:16:18;;;;;;;106.17;44.33;;;;;;;-9.12;77.39;98393.75;2165767;81;20955;-79
2022/12/14 08:19:18;;;;;;;101.93;43.00;;;;;;;-9.03;77.33;98394.10;2168183;81;20999;-78
2022/12/14 08:22:21;;;;;;;114.27;45.67;;;;;;;-8.91;77.18;98389.52;2155847;82;21086;-78
2022/12/14 08:25:21;;;;;;;95.90;44.23;;;;;;;-8.83;76.87;98384.67;2168081;81;21404;-78
2022/12/14 08:28:22;;;;;;;97.13;41.10;;;;;;;-8.73;76.84;98385.90;2167839;81;20995;-79
2022/12/14 08:31:22;;;;;;;94.73;39.80;;;;;;;-8.63;76.49;98389.69;2167984;82;21075;-79
2022/12/14 08:34:22;;;;;;;100.30;42.20;;;;;;;-8.51;76.60;98383.43;2167698;81;21036;-79
2022/12/14 08:37:23;;;;;;;89.07;40.80;;;;;;;-8.38;76.94;98376.90;2167357;81;21423;-79
2022/12/14 08:40:23;;;;;;;98.33;43.87;;;;;;;-8.22;76.42;98376.77;2166881;81;21056;-79
2022/12/14 08:43:23;;;;;;;95.17;41.23;;;;;;;-8.19;75.84;98378.27;2166014;81;21035;-79
2022/12/14 08:46:24;;;;;;;82.47;35.50;;;;;;;-8.14;76.38;98383.30;2167523;81;21019;-79
2022/12/14 08:49:24;;;;;;;96.20;41.40;;;;;;;-8.03;76.26;98383.73;2167366;81;20992;-78
2022/12/14 08:52:25;;;;;;;80.90;37.47;;;;;;;-7.89;76.73;98383.13;2167359;81;21219;-79
2022/12/14 08:55:26;;;;;;;105.20;45.33;;;;;;;-7.72;76.42;98372.63;2166873;81;20972;-78
2022/12/14 08:58:26;;;;;;;90.90;40.63;;;;;;;-7.57;76.59;98380.88;2169017;81;20960;-78
2022/12/14 09:01:26;;;;;;;97.47;43.43;;;;;;;-7.46;76.46;98375.82;2168755;81;21024;-79
2022/12/14 09:04:26;;;;;;;92.60;40.70;;;;;;;-7.35;76.63;98374.45;2168608;81;21004;-79
2022/12/14 09:07:27;;;;;;;88.77;40.40;;;;;;;-7.27;76.28;98369.56;2168508;81;21024;-79
2022/12/14 09:10:27;;;;;;;87.63;36.23;;;;;;;-7.16;76.33;98370.83;2167456;81;21034;-80
2022/12/14 09:13:28;;;;;;;79.03;36.90;;;;;;;-7.07;76.43;98370.23;2167469;81;20996;-79
2022/12/14 09:16:28;;;;;;;99.33;42.23;;;;;;;-7.00;76.46;98360.52;2167859;82;21102;-79
2022/12/14 09:19:28;;;;;;;84.73;39.50;;;;;;;-6.89;76.48;98363.08;2167595;81;21942;-79
2022/12/14 09:22:29;;;;;;;93.20;41.23;;;;;;;-6.81;76.45;98369.97;2168245;81;21043;-79
2022/12/14 09:25:29;;;;;;;84.00;37.90;;;;;;;-6.76;75.89;98363.56;2168571;82;20992;-79
2022/12/14 09:28:30;;;;;;;85.60;37.57;;;;;;;-6.72;76.11;98351.58;2167409;81;21416;-79
2022/12/14 09:31:30;;;;;;;76.17;37.07;;;;;;;-6.62;76.40;98349.30;2167269;81;21239;-80
2022/12/14 09:34:30;;;;;;;79.93;39.37;;;;;;;-6.45;76.14;98347.16;2175821;81;21006;-80
2022/12/14 09:37:31;;;;;;;87.50;41.80;;;;;;;-6.36;76.31;98344.38;2186147;81;21422;-79
2022/12/14 09:40:31;;;;;;;86.00;38.23;;;;;;;-6.18;76.76;98340.94;2182721;81;20987;-80
2022/12/14 09:43:32;;;;;;;83.13;39.47;;;;;;;-5.91;76.41;98333.95;2183104;81;21102;-80
2022/12/14 09:46:32;;;;;;;76.83;37.50;;;;;;;-5.75;75.19;98329.84;2184764;81;21386;-79
2022/12/14 09:49:33;;;;;;;77.60;36.50;;;;;;;-5.67;75.98;98328.69;2185247;81;20921;-79
2022/12/14 09:52:33;;;;;;;79.13;37.23;;;;;;;-5.56;75.00;98328.62;2185122;81;21071;-79
2022/12/14 09:55:33;;;;;;;74.17;36.53;;;;;;;-5.63;75.21;98326.84;2185136;81;21036;-79
2022/12/14 09:58:34;;;;;;;73.47;34.23;;;;;;;-5.73;75.57;98324.08;2185531;81;20991;-76
2022/12/14 10:01:34;;;;;;;66.67;33.27;;;;;;;-5.78;75.53;98312.34;2185210;81;21094;-79
2022/12/14 10:04:34;;;;;;;69.67;31.67;;;;;;;-5.78;75.53;98314.88;2184509;81;21003;-78
2022/12/14 10:07:35;;;;;;;73.50;34.03;;;;;;;-5.89;75.72;98295.50;2184843;81;20932;-79
2022/12/14 10:10:36;;;;;;;76.17;34.53;;;;;;;-5.86;76.04;98310.95;2185428;81;21016;-80
2022/12/14 10:13:36;;;;;;;72.87;35.03;;;;;;;-5.78;76.03;98299.63;2187117;81;21011;-80
2022/12/14 10:16:36;;;;;;;70.67;31.90;;;;;;;-5.53;76.42;98293.61;2186399;81;21225;-79
2022/12/14 10:19:37;;;;;;;71.17;35.67;;;;;;;-5.14;76.21;98288.95;2186507;81;20975;-78
2022/12/14 10:22:37;;;;;;;68.67;33.37;;;;;;;-4.80;74.89;98283.04;2185486;81;21042;-80
2022/12/14 10:25:39;;;;;;;68.40;32.93;;;;;;;-4.58;75.21;98275.05;2185878;81;21459;-79
2022/12/14 10:28:38;;;;;;;67.73;32.00;;;;;;;-4.46;74.79;98271.09;2185924;81;21403;-79
2022/12/14 10:31:39;;;;;;;63.90;31.63;;;;;;;-4.37;74.25;98261.06;2188069;81;21015;-78
2022/12/14 10:34:39;;;;;;;67.73;33.23;;;;;;;-4.23;74.46;98256.44;2180609;81;21062;-78
2022/12/14 10:37:39;;;;;;;63.27;30.47;;;;;;;-4.13;74.07;98242.96;2169797;81;21372;-79
2022/12/14 10:40:39;;;;;;;58.07;29.40;;;;;;;-4.18;73.62;98243.97;2169442;81;21008;-79
2022/12/14 10:43:40;;;;;;;58.03;28.17;;;;;;;-4.20;73.85;98237.89;2168979;81;21015;-80
2022/12/14 10:46:40;;;;;;;59.93;29.83;;;;;;;-4.16;74.24;98233.47;2168042;82;21475;-79
2022/12/14 10:49:41;;;;;;;61.93;32.20;;;;;;;-4.22;73.82;98231.44;2167482;81;20956;-79
2022/12/14 10:52:41;;;;;;;65.10;33.03;;;;;;;-4.21;74.33;98226.83;2168525;81;21047;-79
2022/12/14 10:55:41;;;;;;;61.60;30.70;;;;;;;-4.11;74.99;98232.46;2168846;81;20964;-78
2022/12/14 10:58:42;;;;;;;62.30;32.07;;;;;;;-3.88;74.99;98230.85;2169023;81;21071;-78
2022/12/14 11:01:42;;;;;;;62.90;31.23;;;;;;;-3.67;75.01;98226.10;2167581;81;21000;-79
2022/12/14 11:04:43;;;;;;;64.20;32.27;;;;;;;-3.54;73.81;98218.35;2167520;81;20973;-79
2022/12/14 11:07:44;;;;;;;59.77;30.30;;;;;;;-3.37;74.62;98216.38;2166974;81;20957;-78
2022/12/14 11:10:43;;;;;;;62.20;30.93;;;;;;;-3.23;74.23;98210.36;2167039;81;20996;-78
2022/12/14 11:13:44;;;;;;;66.23;32.33;;;;;;;-3.11;73.25;98202.89;2167630;81;21004;-78
2022/12/14 11:16:44;;;;;;;66.17;34.83;;;;;;;-3.07;74.04;98203.14;2167065;81;21020;-79
2022/12/14 11:19:45;;;;;;;65.63;33.40;;;;;;;-2.94;73.69;98207.23;2166467;81;21016;-79
2022/12/14 11:22:45;;;;;;;68.67;33.37;;;;;;;-2.82;72.65;98198.95;2166222;82;21047;-78
2022/12/14 11:25:46;;;;;;;62.23;31.80;;;;;;;-2.77;73.34;98199.19;2168654;81;20992;-77
2022/12/14 11:28:46;;;;;;;58.20;30.50;;;;;;;-2.72;72.92;98197.77;2169578;81;21012;-77
2022/12/14 11:31:46;;;;;;;56.23;29.33;;;;;;;-2.74;72.49;98192.58;2168227;81;21003;-79
2022/12/14 11:34:47;;;;;;;58.30;31.50;;;;;;;-2.79;71.39;98187.62;2166942;81;21047;-79
2022/12/14 11:37:47;;;;;;;63.10;32.13;;;;;;;-2.84;71.42;98181.39;2166961;81;21040;-79
2022/12/14 11:40:48;;;;;;;63.67;33.93;;;;;;;-2.87;71.86;98182.50;2166291;82;21008;-79
2022/12/14 11:43:48;;;;;;;61.60;32.63;;;;;;;-2.91;72.11;98174.20;2166740;81;20987;-78
2022/12/14 11:46:49;;;;;;;64.23;32.43;;;;;;;-2.83;72.08;98175.48;2165290;81;21438;-78
2022/12/14 11:49:49;;;;;;;55.53;30.67;;;;;;;-2.86;71.33;98172.77;2164839;81;21403;-79
2022/12/14 11:52:49;;;;;;;60.20;30.87;;;;;;;-2.84;72.36;98176.68;2166764;81;20996;-79
2022/12/14 11:55:50;;;;;;;60.90;31.33;;;;;;;-2.80;72.33;98164.55;2166120;81;20987;-79
2022/12/14 11:58:50;;;;;;;65.43;33.00;;;;;;;-2.84;71.60;98157.52;2167262;81;21435;-79
2022/12/14 12:01:51;;;;;;;62.73;33.03;;;;;;;-2.80;72.75;98157.77;2167458;81;21467;-79
2022/12/14 12:04:51;;;;;;;60.87;31.53;;;;;;;-2.90;71.78;98155.53;2167709;81;21022;-81
2022/12/14 12:07:52;;;;;;;60.50;32.30;;;;;;;-2.91;73.75;98156.32;2169269;81;21027;-77
2022/12/14 12:10:52;;;;;;;49.53;26.63;;;;;;;-3.08;72.23;98150.72;2168679;82;21463;-78
2022/12/14 12:13:52;;;;;;;65.53;32.20;;;;;;;-3.21;72.36;98143.68;2168052;81;21234;-78
2022/12/14 12:16:53;;;;;;;66.53;32.33;;;;;;;-3.45;72.63;98137.25;2167970;81;21003;-78
2022/12/14 12:19:53;;;;;;;69.73;32.07;;;;;;;-3.57;73.34;98133.99;2168984;81;20968;-81
2022/12/14 12:22:53;;;;;;;58.70;31.10;;;;;;;-3.74;73.24;98130.52;2169714;82;21794;-79
2022/12/14 12:25:54;;;;;;;67.50;32.67;;;;;;;-3.88;74.11;98125.91;2169968;81;20925;-80
2022/12/14 12:28:54;;;;;;;57.87;29.73;;;;;;;-4.04;74.70;98116.92;2171016;81;21048;-79
2022/12/14 12:31:55;;;;;;;64.17;31.90;;;;;;;-4.12;74.55;98109.63;2170495;81;21004;-80
2022/12/14 12:34:55;;;;;;;70.70;31.60;;;;;;;-4.28;74.92;98104.06;2168971;81;21052;-80
2022/12/14 12:37:55;;;;;;;59.27;30.33;;;;;;;-4.30;75.37;98109.07;2169110;81;21307;-79
2022/12/14 12:40:56;;;;;;;65.57;34.20;;;;;;;-4.32;75.37;98100.46;2168844;81;21376;-79
2022/12/14 12:43:57;;;;;;;59.73;29.70;;;;;;;-4.33;75.72;98084.69;2169056;81;20996;-80
2022/12/14 12:46:57;;;;;;;62.97;30.27;;;;;;;-4.28;76.06;98087.50;2168768;81;21027;-79
2022/12/14 12:49:57;;;;;;;60.20;31.10;;;;;;;-4.25;76.12;98085.12;2168648;81;20952;-79
2022/12/14 12:52:57;;;;;;;61.93;31.30;;;;;;;-4.17;76.11;98077.52;2168662;81;20972;-80
2022/12/14 12:55:58;;;;;;;53.27;28.17;;;;;;;-4.17;76.20;98077.12;2168019;81;20992;-79
2022/12/14 12:58:59;;;;;;;61.83;30.43;;;;;;;-4.24;75.92;98070.31;2168010;81;20956;-80
2022/12/14 13:01:59;;;;;;;56.30;28.70;;;;;;;-4.31;76.35;98064.39;2168635;81;20965;-78
2022/12/14 13:04:59;;;;;;;60.07;30.33;;;;;;;-4.31;76.44;98067.81;2168104;81;20953;-80
2022/12/14 13:08:00;;;;;;;62.97;30.70;;;;;;;-4.25;76.82;98063.47;2168182;81;21023;-80
2022/12/14 13:11:00;;;;;;;63.53;31.30;;;;;;;-4.26;76.75;98063.86;2168346;81;21004;-79
2022/12/14 13:14:00;;;;;;;61.23;31.03;;;;;;;-4.24;76.88;98061.40;2167039;81;21016;-76
2022/12/14 13:17:01;;;;;;;55.73;26.83;;;;;;;-4.21;76.86;98050.10;2167062;81;21000;-79
2022/12/14 13:20:01;;;;;;;55.27;27.30;;;;;;;-4.20;76.66;98040.00;2165948;81;21019;-80
2022/12/14 13:23:02;;;;;;;64.70;29.53;;;;;;;-4.28;76.61;98031.05;2166317;81;21015;-80
2022/12/14 13:26:02;;;;;;;58.33;29.17;;;;;;;-4.38;76.62;98030.41;2168878;81;21004;-79
2022/12/14 13:29:02;;;;;;;60.07;29.53;;;;;;;-4.44;76.89;98025.84;2169124;81;20977;-79
2022/12/14 13:32:03;;;;;;;55.40;27.73;;;;;;;-4.52;76.95;98022.87;2165862;81;21922;-79
2022/12/14 13:35:03;;;;;;;61.40;28.17;;;;;;;-4.60;77.07;98021.95;2168437;81;21281;-78
2022/12/14 13:38:03;;;;;;;57.77;28.83;;;;;;;-4.69;77.30;98013.39;2183728;81;20960;-78
2022/12/14 13:41:04;;;;;;;58.00;27.27;;;;;;;-4.74;77.49;98019.89;2183683;81;21569;-79
2022/12/14 13:44:04;;;;;;;60.97;30.67;;;;;;;-4.79;77.95;98021.29;2183496;81;21026;-80
2022/12/14 13:47:05;;;;;;;57.37;27.70;;;;;;;-4.82;78.08;98005.84;2183978;81;20980;-79
2022/12/14 13:50:05;;;;;;;62.50;29.47;;;;;;;-4.89;78.13;97991.88;2184788;81;20956;-80
2022/12/14 13:53:05;;;;;;;54.23;27.93;;;;;;;-4.99;78.19;97990.86;2185889;81;20979;-79
2022/12/14 13:56:06;;;;;;;57.23;27.77;;;;;;;-4.04;85.77;97981.83;2186330;81;21078;-79
2022/12/14 13:59:06;;;;;;;59.87;29.20;;;;;;;-4.08;79.53;97972.26;2185249;81;20976;-79
2022/12/14 14:02:07;;;;;;;57.90;28.33;;;;;;;-4.40;78.17;97969.19;2185339;81;21537;-79